Time;durP1;ratioP1;P1;durP2;ratioP2;P2;SDS_P1;SDS_P2;PMS_P1;PMS_P2;Temp;Humidity;BMP_temperature;BMP_pressure;BME280_temperature;BME280_humidity;BME280_pressure;Samples;Min_cycle;Max_cycle;Signal;HPM_P1;HPM_P2
2021/10/08 04:33:17;;;;;;;17.70;11.83;;;6.50;99.90;;;;;;4889069;29;20481;-80
2021/10/08 04:35:43;;;;;;;14.60;11.10;;;6.50;99.90;;;;;;4896218;29;20461;-79
2021/10/08 04:38:09;;;;;;;14.50;11.53;;;6.50;99.90;;;;;;4898841;29;20419;-79
2021/10/08 04:40:35;;;;;;;18.83;12.20;;;6.50;99.90;;;;;;4901145;29;20191;-80
2021/10/08 04:43:00;;;;;;;17.97;12.50;;;6.50;99.90;;;;;;4900964;29;20450;-78
2021/10/08 04:45:26;;;;;;;21.23;13.17;;;6.40;99.90;;;;;;4900786;29;20656;-79
2021/10/08 04:47:52;;;;;;;21.13;14.60;;;6.40;99.90;;;;;;4899945;29;20197;-80
2021/10/08 04:50:17;;;;;;;16.43;13.27;;;6.40;99.90;;;;;;4897831;29;20545;-79
2021/10/08 04:52:44;;;;;;;17.90;12.13;;;6.50;99.90;;;;;;4899225;29;20213;-78
2021/10/08 04:55:10;;;;;;;20.53;12.70;;;6.50;99.90;;;;;;4899285;29;20251;-79
2021/10/08 04:57:36;;;;;;;14.93;12.70;;;6.50;99.90;;;;;;4899432;29;20401;-77
2021/10/08 05:00:03;;;;;;;21.10;15.27;;;6.50;99.90;;;;;;4899295;29;20397;-78
2021/10/08 05:02:29;;;;;;;17.90;13.90;;;6.50;99.90;;;;;;4898479;29;20596;-79
2021/10/08 05:04:55;;;;;;;24.30;13.87;;;6.50;99.90;;;;;;4898556;29;20442;-79
2021/10/08 05:07:20;;;;;;;22.20;14.33;;;6.50;99.90;;;;;;4899466;29;20182;-79
2021/10/08 05:09:46;;;;;;;24.70;14.80;;;6.50;99.90;;;;;;4898931;29;20663;-80
2021/10/08 05:12:11;;;;;;;17.60;13.20;;;6.50;99.90;;;;;;4900533;29;20587;-79
2021/10/08 05:14:37;;;;;;;21.13;13.63;;;6.40;99.90;;;;;;4900564;29;20190;-79
2021/10/08 05:17:02;;;;;;;16.67;12.47;;;6.40;99.90;;;;;;4900335;29;20190;-79
2021/10/08 05:19:28;;;;;;;20.53;13.40;;;6.40;99.90;;;;;;4899115;29;20207;-79
2021/10/08 05:21:54;;;;;;;22.03;13.10;;;6.40;99.90;;;;;;4898904;29;20218;-79
2021/10/08 05:24:21;;;;;;;18.53;13.53;;;6.40;99.90;;;;;;4898522;29;20185;-79
2021/10/08 05:26:47;;;;;;;18.33;12.83;;;6.30;99.90;;;;;;4898647;29;20426;-78
2021/10/08 05:29:12;;;;;;;20.43;13.33;;;6.30;99.90;;;;;;4899780;29;20469;-79
2021/10/08 05:31:38;;;;;;;16.57;12.50;;;6.40;99.90;;;;;;4899847;29;20692;-79
2021/10/08 05:34:04;;;;;;;17.60;12.30;;;6.50;99.90;;;;;;4897965;29;20214;-78
2021/10/08 05:36:29;;;;;;;22.93;15.53;;;6.40;99.90;;;;;;4897780;29;20186;-77
2021/10/08 05:38:55;;;;;;;17.70;14.47;;;6.50;99.90;;;;;;4898010;29;20183;-76
2021/10/08 05:41:20;;;;;;;23.70;14.50;;;6.50;99.90;;;;;;4898115;29;20226;-76
2021/10/08 05:43:46;;;;;;;32.13;15.20;;;6.50;99.90;;;;;;4897833;29;20289;-76
2021/10/08 05:46:12;;;;;;;19.87;15.40;;;6.50;99.90;;;;;;4897967;29;20183;-76
2021/10/08 05:48:37;;;;;;;17.00;13.70;;;6.50;99.90;;;;;;4897858;29;20188;-76
2021/10/08 05:51:03;;;;;;;21.83;14.23;;;6.50;99.90;;;;;;4897319;29;20750;-76
2021/10/08 05:53:28;;;;;;;27.33;15.07;;;6.60;99.90;;;;;;4897442;29;20186;-77
2021/10/08 05:55:54;;;;;;;20.27;13.90;;;6.60;99.90;;;;;;4897650;29;20242;-76
2021/10/08 05:58:20;;;;;;;24.80;14.30;;;6.60;99.90;;;;;;4897587;29;20179;-75
2021/10/08 06:00:45;;;;;;;28.47;16.20;;;6.80;99.90;;;;;;4897333;29;20259;-76
2021/10/08 06:03:11;;;;;;;25.90;15.30;;;6.90;99.90;;;;;;4897275;29;20242;-75
2021/10/08 06:05:38;;;;;;;25.57;16.43;;;7.00;99.90;;;;;;4897466;29;20179;-76
2021/10/08 06:08:05;;;;;;;26.83;15.60;;;7.10;99.90;;;;;;4897173;29;20183;-76
2021/10/08 06:10:30;;;;;;;25.40;16.57;;;7.20;99.90;;;;;;4897041;29;20427;-75
2021/10/08 06:12:56;;;;;;;28.17;17.47;;;7.40;99.90;;;;;;4897054;29;20423;-77
2021/10/08 06:15:21;;;;;;;32.70;19.03;;;7.60;99.90;;;;;;4896986;29;20653;-76
2021/10/08 06:17:47;;;;;;;29.60;19.10;;;7.70;99.90;;;;;;4897092;29;20664;-76
2021/10/08 06:20:13;;;;;;;26.30;17.30;;;7.80;99.90;;;;;;4897028;29;20180;-76
2021/10/08 06:22:40;;;;;;;24.27;17.00;;;7.90;99.90;;;;;;4896976;29;20218;-77
2021/10/08 06:25:07;;;;;;;27.93;16.67;;;8.00;99.90;;;;;;4895786;29;20188;-76
2021/10/08 06:27:32;;;;;;;22.50;16.00;;;8.10;99.90;;;;;;4896989;29;20421;-76
2021/10/08 06:29:59;;;;;;;32.30;14.73;;;8.30;99.90;;;;;;4896845;29;21027;-77
2021/10/08 06:32:24;;;;;;;22.80;15.40;;;8.50;99.90;;;;;;4896440;29;20220;-77
2021/10/08 06:34:50;;;;;;;21.50;14.83;;;8.70;99.90;;;;;;4896401;29;20429;-77
2021/10/08 06:37:15;;;;;;;19.37;13.23;;;9.00;99.90;;;;;;4895493;29;20194;-77
2021/10/08 06:39:41;;;;;;;19.10;14.40;;;9.60;99.90;;;;;;4896682;29;20190;-77
2021/10/08 06:42:07;;;;;;;21.03;13.27;;;10.10;99.90;;;;;;4895811;29;20262;-77
2021/10/08 06:44:32;;;;;;;21.70;13.60;;;10.10;99.90;;;;;;4897042;29;20181;-77
2021/10/08 06:46:58;;;;;;;23.20;14.33;;;10.20;99.90;;;;;;4896815;29;20273;-77
2021/10/08 06:49:24;;;;;;;26.50;13.40;;;10.10;99.90;;;;;;4896646;29;20619;-77
2021/10/08 06:51:49;;;;;;;16.73;13.00;;;10.10;99.90;;;;;;4896489;29;20667;-77
2021/10/08 06:54:15;;;;;;;21.00;13.70;;;10.20;99.90;;;;;;4896450;29;20221;-77
2021/10/08 06:56:40;;;;;;;20.37;14.17;;;10.30;99.90;;;;;;4896611;29;20238;-77
2021/10/08 06:59:06;;;;;;;17.70;13.30;;;10.30;99.90;;;;;;4896466;29;20244;-78
2021/10/08 07:01:32;;;;;;;16.40;14.00;;;10.40;99.90;;;;;;4896557;29;20222;-76
2021/10/08 07:03:57;;;;;;;17.90;13.33;;;11.10;99.90;;;;;;4896197;29;20190;-76
2021/10/08 07:06:23;;;;;;;16.20;11.90;;;12.20;99.90;;;;;;4896580;29;20175;-77
2021/10/08 07:08:48;;;;;;;15.60;11.40;;;13.20;99.90;;;;;;4896332;29;20175;-77
2021/10/08 07:11:14;;;;;;;18.10;13.70;;;14.20;99.90;;;;;;4896329;29;20207;-76
2021/10/08 07:13:40;;;;;;;18.47;12.40;;;14.90;99.90;;;;;;4896398;29;20277;-75
2021/10/08 07:16:05;;;;;;;17.30;12.47;;;15.50;99.90;;;;;;4896864;29;20206;-78
2021/10/08 07:18:34;;;;;;;14.87;11.23;;;16.20;99.90;;;;;;4896511;29;20183;-78
2021/10/08 07:21:04;;;;;;;15.77;12.27;;;16.40;99.90;;;;;;4896162;29;20289;-78
2021/10/08 07:23:31;;;;;;;14.10;11.23;;;16.70;99.90;;;;;;4896212;29;20427;-78
2021/10/08 07:25:57;;;;;;;17.43;11.50;;;16.90;99.90;;;;;;4895929;29;20935;-78
2021/10/08 07:28:23;;;;;;;13.10;9.80;;;16.90;99.90;;;;;;4896340;29;20415;-77
2021/10/08 07:30:49;;;;;;;14.13;11.77;;;16.70;99.90;;;;;;4895778;29;20657;-76
2021/10/08 07:33:14;;;;;;;13.97;11.50;;;16.50;99.90;;;;;;4896041;29;20210;-75
2021/10/08 07:35:39;;;;;;;14.30;12.20;;;15.90;99.90;;;;;;4894483;29;20179;-78
2021/10/08 07:38:05;;;;;;;14.63;11.90;;;15.90;99.90;;;;;;4885567;29;20270;-77
2021/10/08 07:40:31;;;;;;;15.10;12.60;;;15.80;99.90;;;;;;4887452;29;20217;-77
2021/10/08 07:42:56;;;;;;;14.03;12.40;;;15.80;99.90;;;;;;4883475;29;20223;-77
2021/10/08 07:45:22;;;;;;;17.50;13.23;;;15.70;99.90;;;;;;4887660;29;20187;-77
2021/10/08 07:47:48;;;;;;;13.20;11.90;;;15.70;99.90;;;;;;4888472;29;20185;-78
2021/10/08 07:50:14;;;;;;;17.30;12.70;;;15.70;99.90;;;;;;4891139;29;20182;-77
2021/10/08 07:52:40;;;;;;;14.50;10.43;;;15.70;99.90;;;;;;4893030;29;20488;-77
2021/10/08 07:55:09;;;;;;;11.60;10.40;;;15.70;99.90;;;;;;4888132;29;20424;-76
2021/10/08 07:57:36;;;;;;;15.80;11.70;;;15.60;99.90;;;;;;4880994;29;20795;-78
2021/10/08 08:00:07;;;;;;;16.10;12.27;;;15.70;99.90;;;;;;4893664;29;20442;-78
2021/10/08 08:02:33;;;;;;;15.83;12.07;;;15.80;99.90;;;;;;4899794;29;20529;-78
2021/10/08 08:04:58;;;;;;;14.77;10.50;;;16.00;99.90;;;;;;4900371;29;20438;-79
2021/10/08 08:07:24;;;;;;;12.53;11.20;;;16.20;99.90;;;;;;4900610;29;20186;-78
2021/10/08 08:09:50;;;;;;;13.43;10.47;;;16.50;99.90;;;;;;4900491;29;20185;-78
2021/10/08 08:12:17;;;;;;;14.17;11.70;;;16.70;99.90;;;;;;4899321;29;20439;-77
2021/10/08 08:14:42;;;;;;;14.20;10.63;;;16.70;99.90;;;;;;4897969;29;20442;-79
2021/10/08 08:17:08;;;;;;;12.50;11.20;;;16.80;99.90;;;;;;4899039;29;20429;-78
2021/10/08 08:19:33;;;;;;;17.97;12.17;;;16.70;99.90;;;;;;4899264;29;20273;-78
2021/10/08 08:21:59;;;;;;;11.30;9.93;;;16.80;99.90;;;;;;4899005;29;20214;-79
2021/10/08 08:24:25;;;;;;;14.30;10.63;;;16.80;99.90;;;;;;4899039;29;20179;-78
2021/10/08 08:26:50;;;;;;;11.70;10.13;;;17.00;99.90;;;;;;4898941;29;20186;-78
2021/10/08 08:29:16;;;;;;;17.23;10.07;;;17.20;99.90;;;;;;4882194;29;20206;-76
2021/10/08 08:31:42;;;;;;;14.93;10.93;;;16.80;99.90;;;;;;4898579;29;20256;-78
2021/10/08 08:34:08;;;;;;;14.10;10.97;;;16.50;99.90;;;;;;4898815;29;20659;-79
2021/10/08 08:36:34;;;;;;;13.23;10.17;;;16.10;99.90;;;;;;4899053;29;20182;-78
2021/10/08 08:39:04;;;;;;;12.97;11.23;;;16.10;99.90;;;;;;4898917;29;20431;-78
2021/10/08 08:41:30;;;;;;;20.13;10.50;;;16.50;99.90;;;;;;4898974;29;20642;-78
2021/10/08 08:43:56;;;;;;;12.07;9.20;;;16.90;99.90;;;;;;4898544;29;20921;-79
2021/10/08 08:46:21;;;;;;;11.30;9.67;;;16.90;99.90;;;;;;4898905;29;20424;-78
2021/10/08 08:48:47;;;;;;;12.80;10.60;;;16.90;99.90;;;;;;4898712;29;20182;-78
2021/10/08 08:51:12;;;;;;;11.07;10.00;;;16.90;99.90;;;;;;4897673;29;20215;-79
2021/10/08 08:53:38;;;;;;;11.30;8.40;;;17.20;99.90;;;;;;4897256;29;20190;-78
2021/10/08 08:56:04;;;;;;;10.43;9.07;;;17.30;99.90;;;;;;4898445;29;20194;-78
2021/10/08 08:58:29;;;;;;;11.10;10.00;;;17.40;99.90;;;;;;4898577;29;20273;-78
2021/10/08 09:00:57;;;;;;;9.47;8.40;;;17.00;99.90;;;;;;4897554;29;20206;-79
2021/10/08 09:03:23;;;;;;;13.40;8.77;;;16.80;99.90;;;;;;4898417;29;20190;-78
2021/10/08 09:05:48;;;;;;;10.97;8.63;;;16.60;99.90;;;;;;4898713;29;20411;-79
2021/10/08 09:08:14;;;;;;;8.70;7.80;;;16.20;99.90;;;;;;4899083;29;20171;-79
2021/10/08 09:10:42;;;;;;;10.40;8.50;;;15.90;99.90;;;;;;4898434;29;20679;-77
2021/10/08 09:13:08;;;;;;;11.23;8.60;;;15.80;99.90;;;;;;4898546;29;20995;-79
2021/10/08 09:15:50;;;;;;;14.30;9.37;;;15.50;99.90;;;;;;4898183;29;20419;-77
2021/10/08 09:18:21;;;;;;;17.20;9.20;;;15.40;99.90;;;;;;4897947;29;20178;-77
2021/10/08 09:21:16;;;;;;;9.70;8.70;;;15.30;99.90;;;;;;4896538;29;20450;-78
2021/10/08 09:23:47;;;;;;;16.20;9.40;;;15.10;99.90;;;;;;4897712;29;20947;-77
2021/10/08 09:26:25;;;;;;;11.90;9.30;;;15.20;99.90;;;;;;4898686;29;20908;-78
2021/10/08 09:29:05;;;;;;;9.77;8.87;;;15.20;99.90;;;;;;4898000;29;20465;-78
2021/10/08 09:31:40;;;;;;;10.80;9.70;;;15.10;99.90;;;;;;4897667;29;20543;-78
2021/10/08 09:34:11;;;;;;;10.33;9.43;;;15.10;99.90;;;;;;4897633;29;20424;-78
2021/10/08 09:36:37;;;;;;;12.40;10.03;;;14.90;99.90;;;;;;4897776;29;20477;-78
2021/10/08 09:39:16;;;;;;;10.37;8.80;;;15.00;99.90;;;;;;4897609;29;20768;-77
2021/10/08 09:41:41;;;;;;;13.37;10.57;;;15.00;99.90;;;;;;4897576;29;20565;-78
2021/10/08 09:44:10;;;;;;;12.63;10.30;;;15.00;99.90;;;;;;4897439;29;20517;-78
2021/10/08 09:46:36;;;;;;;14.40;9.70;;;15.00;99.90;;;;;;4897738;29;20183;-79
2021/10/08 09:49:01;;;;;;;14.73;9.60;;;15.00;99.90;;;;;;4897560;29;20415;-79
2021/10/08 09:51:31;;;;;;;12.53;10.10;;;15.00;99.90;;;;;;4897316;29;20241;-78
2021/10/08 09:53:57;;;;;;;13.37;9.77;;;15.00;99.90;;;;;;4897266;29;20284;-78
2021/10/08 09:56:39;;;;;;;9.60;8.60;;;15.00;99.90;;;;;;4897416;29;20513;-78
2021/10/08 09:59:13;;;;;;;16.57;9.83;;;15.00;99.90;;;;;;4897277;29;20195;-79
2021/10/08 10:01:40;;;;;;;11.93;10.07;;;14.90;99.90;;;;;;4896580;29;20849;-79
2021/10/08 10:04:08;;;;;;;16.67;9.93;;;14.90;99.90;;;;;;4898614;29;20430;-79
2021/10/08 10:06:37;;;;;;;13.17;11.60;;;14.90;99.90;;;;;;4897349;29;20423;-78
2021/10/08 10:09:04;;;;;;;12.53;10.43;;;14.80;99.90;;;;;;4897214;29;20832;-79
2021/10/08 10:11:30;;;;;;;12.77;10.40;;;14.80;99.90;;;;;;4896734;29;20853;-78
2021/10/08 10:14:00;;;;;;;10.80;9.40;;;14.90;99.90;;;;;;4897118;29;20425;-79
2021/10/08 10:16:27;;;;;;;11.83;8.80;;;15.00;99.90;;;;;;4896140;29;20671;-78
2021/10/08 10:18:55;;;;;;;13.83;9.40;;;15.00;99.90;;;;;;4896954;29;20433;-79
2021/10/08 10:21:22;;;;;;;13.50;9.13;;;14.90;99.90;;;;;;4896780;29;20470;-78
2021/10/08 10:23:56;;;;;;;15.03;9.97;;;14.90;99.90;;;;;;4896794;29;20513;-79
2021/10/08 10:26:23;;;;;;;12.00;8.90;;;14.90;99.90;;;;;;4896961;29;20466;-79
2021/10/08 10:28:49;;;;;;;9.73;8.83;;;14.90;99.90;;;;;;4896858;29;20426;-78
2021/10/08 10:31:16;;;;;;;11.53;8.90;;;14.90;99.90;;;;;;4896674;29;20454;-78
2021/10/08 10:33:42;;;;;;;10.77;9.20;;;15.00;99.90;;;;;;4897210;29;20228;-79
2021/10/08 10:36:22;;;;;;;12.27;9.53;;;15.10;99.90;;;;;;4896922;29;20882;-76
2021/10/08 10:38:48;;;;;;;14.90;8.77;;;15.20;99.90;;;;;;4896812;29;20423;-79
2021/10/08 10:41:13;;;;;;;15.10;9.40;;;15.20;99.90;;;;;;4896919;29;20843;-78
2021/10/08 10:43:45;;;;;;;17.10;9.40;;;15.10;99.90;;;;;;4895304;29;20193;-78
2021/10/08 10:52:00;;;;;;;17.10;8.90;;;15.40;99.90;;;;;;4915818;29;20430;-79
2021/10/08 10:54:35;;;;;;;12.83;9.10;;;15.40;99.90;;;;;;4915231;29;20422;-77
2021/10/08 10:57:01;;;;;;;13.20;9.30;;;15.50;99.90;;;;;;4890397;29;20801;-78
2021/10/08 10:59:28;;;;;;;14.10;9.67;;;15.50;99.90;;;;;;4886230;29;20439;-78
2021/10/08 11:04:32;;;;;;;11.90;9.20;;;15.40;99.90;;;;;;4887964;29;20426;-78
2021/10/08 11:07:04;;;;;;;10.57;9.00;;;15.50;99.90;;;;;;4885691;29;20511;-79
2021/10/08 11:09:30;;;;;;;11.40;8.03;;;15.60;99.90;;;;;;4886804;29;20461;-78
2021/10/08 11:12:30;;;;;;;12.30;8.53;;;15.70;99.90;;;;;;4888787;29;20482;-78
2021/10/08 11:15:14;;;;;;;10.43;9.10;;;15.60;99.90;;;;;;4886119;29;20191;-78
2021/10/08 11:17:54;;;;;;;12.63;9.17;;;15.60;99.90;;;;;;4888192;29;21014;-79
2021/10/08 11:20:29;;;;;;;11.90;9.03;;;15.50;99.90;;;;;;4889289;29;20559;-79
2021/10/08 11:23:00;;;;;;;12.73;9.13;;;15.50;99.90;;;;;;4885602;29;20458;-79
2021/10/08 11:25:28;;;;;;;10.77;8.83;;;15.50;99.90;;;;;;4889883;29;20447;-79
2021/10/08 11:27:54;;;;;;;10.67;9.03;;;15.70;99.90;;;;;;4893956;29;20419;-78
2021/10/08 11:30:22;;;;;;;11.53;9.50;;;15.60;99.90;;;;;;4893561;29;20510;-76
2021/10/08 11:32:50;;;;;;;12.23;8.30;;;15.60;99.90;;;;;;4889954;29;20869;-78
2021/10/08 11:35:20;;;;;;;12.40;9.20;;;15.50;99.90;;;;;;4890795;29;20423;-77
2021/10/08 11:37:48;;;;;;;12.10;9.53;;;15.70;99.90;;;;;;4885636;29;20847;-78
2021/10/08 11:40:25;;;;;;;13.13;9.80;;;15.60;99.90;;;;;;4893681;29;20800;-79
2021/10/08 11:43:02;;;;;;;11.90;9.40;;;15.70;99.90;;;;;;4882705;29;20483;-78
2021/10/08 11:45:46;;;;;;;12.37;8.83;;;15.80;99.90;;;;;;4890408;29;20469;-79
2021/10/08 11:48:20;;;;;;;10.13;9.07;;;15.80;99.90;;;;;;4887955;29;20431;-78
2021/10/08 11:50:52;;;;;;;13.90;9.33;;;15.90;99.90;;;;;;4889064;29;20842;-78
2021/10/08 11:53:17;;;;;;;12.17;9.07;;;15.70;99.90;;;;;;4892870;29;20509;-80
2021/10/08 11:55:43;;;;;;;12.40;9.87;;;15.70;99.90;;;;;;4889795;29;20518;-78
2021/10/08 11:58:11;;;;;;;13.90;9.23;;;15.60;99.90;;;;;;4892377;29;20185;-78
2021/10/08 12:00:47;;;;;;;11.10;9.03;;;15.60;99.90;;;;;;4898207;29;20181;-77
2021/10/08 12:03:21;;;;;;;12.47;8.53;;;15.50;99.90;;;;;;4898153;29;20437;-77
2021/10/08 12:05:58;;;;;;;11.73;9.00;;;15.40;99.90;;;;;;4899293;29;20420;-77
2021/10/08 12:08:37;;;;;;;15.20;9.30;;;15.40;99.90;;;;;;4897999;29;20449;-78
2021/10/08 12:11:13;;;;;;;11.40;10.23;;;15.30;99.90;;;;;;4899220;29;20435;-78
2021/10/08 12:13:55;;;;;;;13.00;9.63;;;15.30;99.90;;;;;;4899354;29;20943;-78
2021/10/08 12:16:36;;;;;;;11.20;8.60;;;15.30;99.90;;;;;;4899324;29;20497;-78
2021/10/08 12:19:03;;;;;;;17.17;9.40;;;15.30;99.90;;;;;;4898996;29;20979;-77
2021/10/08 12:21:31;;;;;;;14.53;10.20;;;15.40;99.90;;;;;;4899053;29;20483;-77
2021/10/08 12:24:12;;;;;;;10.90;9.77;;;15.50;99.90;;;;;;4898861;29;20419;-78
2021/10/08 12:26:42;;;;;;;8.97;8.07;;;15.60;99.90;;;;;;4899193;29;20418;-77
2021/10/08 12:29:10;;;;;;;15.40;9.00;;;15.50;99.90;;;;;;4898796;29;20487;-78
2021/10/08 12:31:57;;;;;;;11.60;9.73;;;15.40;99.90;;;;;;4898818;29;20467;-78
2021/10/08 12:34:49;;;;;;;13.60;10.23;;;15.40;99.90;;;;;;4898561;29;20498;-77
2021/10/08 12:37:23;;;;;;;14.27;9.80;;;15.40;99.90;;;;;;4898790;29;20506;-78
2021/10/08 12:40:11;;;;;;;13.80;9.30;;;15.40;99.90;;;;;;4898764;29;20442;-78
2021/10/08 12:42:38;;;;;;;9.67;8.67;;;15.40;99.90;;;;;;4897410;29;20850;-78
2021/10/08 12:45:20;;;;;;;14.40;11.13;;;15.40;99.90;;;;;;4898587;29;20425;-79
2021/10/08 12:47:48;;;;;;;13.27;10.10;;;15.40;99.90;;;;;;4898742;29;20512;-78
2021/10/08 12:50:24;;;;;;;18.23;9.47;;;15.40;99.90;;;;;;4897673;29;20517;-77
2021/10/08 12:52:55;;;;;;;11.33;10.13;;;15.50;99.90;;;;;;4898546;29;20435;-78
2021/10/08 12:55:31;;;;;;;11.53;9.90;;;15.60;99.90;;;;;;4898660;29;20458;-78
2021/10/08 12:58:05;;;;;;;11.77;9.93;;;15.60;99.90;;;;;;4898473;29;20433;-77
2021/10/08 13:00:52;;;;;;;12.70;9.90;;;15.60;99.90;;;;;;4898366;29;20963;-77
2021/10/08 13:03:33;;;;;;;11.17;9.60;;;15.70;99.90;;;;;;4900783;29;20463;-78
2021/10/08 13:06:02;;;;;;;11.80;10.60;;;15.80;99.90;;;;;;4900886;29;20464;-78
2021/10/08 13:08:31;;;;;;;9.20;8.20;;;15.70;99.90;;;;;;4898922;29;20403;-78
2021/10/08 13:11:00;;;;;;;11.27;9.27;;;15.80;99.90;;;;;;4900015;29;20509;-78
2021/10/08 13:13:29;;;;;;;13.97;9.30;;;16.00;99.90;;;;;;4899481;29;20421;-79
2021/10/08 13:15:55;;;;;;;11.57;9.27;;;16.00;99.90;;;;;;4900048;29;20418;-79
2021/10/08 13:18:21;;;;;;;12.07;10.20;;;16.10;99.90;;;;;;4900207;29;20770;-79
2021/10/08 13:20:49;;;;;;;11.20;9.00;;;16.20;99.90;;;;;;4899469;29;20759;-78
2021/10/08 13:23:15;;;;;;;13.53;9.53;;;16.20;99.90;;;;;;4899745;29;20473;-78
2021/10/08 13:25:43;;;;;;;16.13;8.40;;;16.30;99.90;;;;;;4899681;29;20418;-79
2021/10/08 13:28:13;;;;;;;10.17;8.93;;;16.20;99.90;;;;;;4899089;29;20425;-79
2021/10/08 13:30:39;;;;;;;15.43;9.60;;;16.30;99.90;;;;;;4897463;29;20423;-78
2021/10/08 13:33:05;;;;;;;11.80;8.50;;;16.30;99.90;;;;;;4899001;29;20431;-79
2021/10/08 13:35:31;;;;;;;12.70;10.00;;;16.20;99.90;;;;;;4899927;29;20793;-79
2021/10/08 13:37:57;;;;;;;13.27;8.83;;;16.10;99.90;;;;;;4900719;29;20230;-79
2021/10/08 13:40:23;;;;;;;13.97;9.87;;;16.00;99.90;;;;;;4899244;29;20451;-78
2021/10/08 13:42:49;;;;;;;11.23;8.13;;;15.80;99.90;;;;;;4897155;29;20224;-79
2021/10/08 13:45:15;;;;;;;10.07;8.97;;;15.80;99.90;;;;;;4898689;29;20419;-79
2021/10/08 13:47:41;;;;;;;11.07;9.07;;;15.70;99.90;;;;;;4898117;29;20479;-79
2021/10/08 13:50:08;;;;;;;10.80;8.97;;;15.70;99.90;;;;;;4898497;29;20418;-79
2021/10/08 13:52:33;;;;;;;10.00;9.00;;;15.80;99.90;;;;;;4898339;29;20482;-78
2021/10/08 13:54:59;;;;;;;11.67;8.23;;;15.80;99.90;;;;;;4898446;29;20454;-79
2021/10/08 13:57:25;;;;;;;10.20;8.70;;;15.90;99.90;;;;;;4897977;29;20253;-79
2021/10/08 13:59:50;;;;;;;13.10;10.13;;;15.80;99.90;;;;;;4897115;29;20411;-79
2021/10/08 14:02:23;;;;;;;11.10;8.77;;;15.80;99.90;;;;;;4897930;29;20242;-79
2021/10/08 14:04:52;;;;;;;13.37;9.10;;;15.90;99.90;;;;;;4898139;29;20275;-78
2021/10/08 14:12:28;;;;;;;9.20;7.77;;;16.00;99.90;;;;;;4897915;29;20631;-79
2021/10/08 14:14:53;;;;;;;15.20;9.53;;;16.00;99.90;;;;;;4897888;29;20427;-78
2021/10/08 14:17:19;;;;;;;9.50;8.50;;;16.00;99.90;;;;;;4897748;29;20664;-78
2021/10/08 14:19:44;;;;;;;12.10;8.60;;;16.10;99.90;;;;;;4898254;29;20186;-78
2021/10/08 14:22:10;;;;;;;8.40;7.07;;;16.10;99.90;;;;;;4898563;29;20538;-78
2021/10/08 14:24:35;;;;;;;10.83;7.90;;;16.10;99.90;;;;;;4899569;29;20178;-78
2021/10/08 14:27:01;;;;;;;10.83;8.73;;;16.00;99.90;;;;;;4898125;29;20296;-79
2021/10/08 14:29:27;;;;;;;11.10;8.30;;;16.00;99.90;;;;;;4899818;29;20178;-79
2021/10/08 14:31:52;;;;;;;10.10;8.53;;;16.10;99.90;;;;;;4898347;29;20242;-78
2021/10/08 14:34:18;;;;;;;10.37;7.57;;;16.00;99.90;;;;;;4899864;29;20970;-78
2021/10/08 14:36:43;;;;;;;10.03;7.80;;;16.00;99.90;;;;;;4899589;29;20277;-79
2021/10/08 14:39:09;;;;;;;9.60;8.07;;;16.00;99.90;;;;;;4898853;29;20270;-79
2021/10/08 14:41:34;;;;;;;9.77;8.40;;;15.90;99.90;;;;;;4898936;29;20217;-79
2021/10/08 14:44:00;;;;;;;9.93;8.90;;;15.90;99.90;;;;;;4899575;29;20177;-76
2021/10/08 14:46:25;;;;;;;10.40;8.10;;;15.90;99.90;;;;;;4899540;29;20185;-79
2021/10/08 14:48:55;;;;;;;8.43;7.53;;;16.00;99.90;;;;;;4899557;29;20175;-79
2021/10/08 14:51:25;;;;;;;10.20;8.53;;;16.00;99.90;;;;;;4899967;29;20283;-77
2021/10/08 14:53:51;;;;;;;10.90;9.13;;;16.00;99.90;;;;;;4898656;29;20430;-77
2021/10/08 14:56:31;;;;;;;9.77;8.43;;;16.00;99.90;;;;;;4898898;29;20419;-78
2021/10/08 14:58:57;;;;;;;12.83;9.17;;;16.00;99.90;;;;;;4897904;29;20171;-78
2021/10/08 15:01:25;;;;;;;11.53;9.67;;;15.90;99.90;;;;;;4894542;29;20471;-79
2021/10/08 15:03:51;;;;;;;13.47;9.07;;;15.80;99.90;;;;;;4888813;29;20204;-79
2021/10/08 15:06:16;;;;;;;10.93;9.80;;;15.80;99.90;;;;;;4880573;29;20427;-80
2021/10/08 15:08:42;;;;;;;17.20;10.90;;;15.80;99.90;;;;;;4880673;29;20182;-78
2021/10/08 15:11:07;;;;;;;11.90;10.43;;;15.70;99.90;;;;;;4880073;29;20219;-78
2021/10/08 15:13:33;;;;;;;12.50;10.30;;;15.70;99.90;;;;;;4880967;29;20179;-79
2021/10/08 15:15:58;;;;;;;10.20;9.10;;;15.60;99.90;;;;;;4881851;29;20184;-79
2021/10/08 15:18:24;;;;;;;13.50;10.40;;;15.70;99.90;;;;;;4880561;29;20229;-79
2021/10/08 15:20:49;;;;;;;13.87;10.63;;;15.60;99.90;;;;;;4879466;29;20195;-78
2021/10/08 15:23:15;;;;;;;14.70;11.90;;;15.60;99.90;;;;;;4880926;29;20552;-79
2021/10/08 15:25:40;;;;;;;11.30;9.53;;;15.50;99.90;;;;;;4878537;29;20215;-79
2021/10/08 15:28:08;;;;;;;15.83;9.87;;;15.50;99.90;;;;;;4880040;29;20325;-79
2021/10/08 15:30:34;;;;;;;19.37;9.93;;;15.50;99.90;;;;;;4877852;29;20255;-79
2021/10/08 15:32:59;;;;;;;12.60;10.20;;;15.50;99.90;;;;;;4877249;29;20438;-78
2021/10/08 15:35:25;;;;;;;13.33;10.30;;;15.50;99.90;;;;;;4877419;29;20179;-78
2021/10/08 15:37:51;;;;;;;13.47;11.37;;;15.50;99.90;;;;;;4875866;29;20536;-78
2021/10/08 15:40:17;;;;;;;11.93;10.53;;;15.50;99.90;;;;;;4877710;29;20176;-78
2021/10/08 15:42:42;;;;;;;11.40;9.67;;;15.50;99.90;;;;;;4877175;29;20478;-78
2021/10/08 15:45:11;;;;;;;13.17;10.70;;;15.40;99.90;;;;;;4877205;29;20179;-78
2021/10/08 15:47:36;;;;;;;11.70;8.97;;;15.40;99.90;;;;;;4877290;29;20542;-78
2021/10/08 15:50:03;;;;;;;15.53;11.07;;;15.40;99.90;;;;;;4877430;29;20453;-78
2021/10/08 15:52:28;;;;;;;11.03;9.60;;;15.40;99.90;;;;;;4877143;29;20206;-77
2021/10/08 15:54:54;;;;;;;10.50;9.33;;;15.30;99.90;;;;;;4877213;29;20419;-78
2021/10/08 15:57:19;;;;;;;15.43;11.00;;;15.30;99.90;;;;;;4877392;29;20187;-77
2021/10/08 15:59:45;;;;;;;14.20;10.20;;;15.20;99.90;;;;;;4875926;29;20937;-78
2021/10/08 16:02:10;;;;;;;12.10;9.90;;;15.10;99.90;;;;;;4877156;29;20262;-78
2021/10/08 16:04:36;;;;;;;15.97;13.60;;;15.10;99.90;;;;;;4877187;29;20232;-78
2021/10/08 16:07:02;;;;;;;15.83;11.13;;;15.00;99.90;;;;;;4877369;29;20179;-78
2021/10/08 16:09:27;;;;;;;15.60;11.00;;;14.80;99.90;;;;;;4876493;29;20179;-78
2021/10/08 16:11:53;;;;;;;12.37;10.30;;;14.80;99.90;;;;;;4880351;29;20221;-78
2021/10/08 16:14:18;;;;;;;15.97;12.87;;;14.70;99.90;;;;;;4880644;29;20192;-78
2021/10/08 16:16:50;;;;;;;16.57;12.27;;;14.70;99.90;;;;;;4880816;29;20532;-78
2021/10/08 16:19:21;;;;;;;14.87;11.80;;;14.60;99.90;;;;;;4880756;29;20180;-77
2021/10/08 16:21:49;;;;;;;14.80;12.00;;;14.60;99.90;;;;;;4880534;29;20495;-77
2021/10/08 16:24:14;;;;;;;15.83;12.33;;;14.50;99.90;;;;;;4880444;29;20420;-77
2021/10/08 16:26:41;;;;;;;12.93;11.47;;;14.50;99.90;;;;;;4880627;29;20424;-78
2021/10/08 16:29:07;;;;;;;15.27;11.77;;;14.50;99.90;;;;;;4880201;29;20243;-78
2021/10/08 16:31:35;;;;;;;18.33;12.20;;;14.50;99.90;;;;;;4880240;29;20456;-78
2021/10/08 16:34:02;;;;;;;15.50;11.13;;;14.40;99.90;;;;;;4880074;29;20506;-77
2021/10/08 16:36:30;;;;;;;13.23;10.77;;;14.40;99.90;;;;;;4880080;29;20933;-78
2021/10/08 16:38:56;;;;;;;15.17;11.33;;;14.40;99.90;;;;;;4880181;29;21067;-77
2021/10/08 16:41:21;;;;;;;16.30;11.73;;;14.40;99.90;;;;;;4880012;29;20470;-77
2021/10/08 16:43:47;;;;;;;16.47;11.80;;;14.40;99.90;;;;;;4880061;29;20910;-77
2021/10/08 16:46:12;;;;;;;14.73;11.93;;;14.30;99.90;;;;;;4881034;29;20179;-78
2021/10/08 16:48:38;;;;;;;13.03;11.00;;;14.30;99.90;;;;;;4881806;29;20271;-78
2021/10/08 16:51:03;;;;;;;12.50;11.20;;;14.30;99.90;;;;;;4880271;29;20716;-79
2021/10/08 16:53:29;;;;;;;16.90;11.90;;;14.30;99.90;;;;;;4881955;29;20183;-78
2021/10/08 16:55:54;;;;;;;17.17;12.23;;;14.30;99.90;;;;;;4881704;29;20253;-78
2021/10/08 16:58:20;;;;;;;16.00;12.43;;;14.20;99.90;;;;;;4882408;29;20171;-78
2021/10/08 17:00:46;;;;;;;24.13;12.00;;;14.20;99.90;;;;;;4882440;29;20183;-78
2021/10/08 17:03:12;;;;;;;14.50;11.70;;;14.10;99.90;;;;;;4884825;29;20218;-81
2021/10/08 17:05:37;;;;;;;14.70;12.23;;;14.10;99.90;;;;;;4883584;29;20779;-77
2021/10/08 17:08:04;;;;;;;15.87;11.83;;;14.10;99.90;;;;;;4879431;29;20896;-75
2021/10/08 17:10:29;;;;;;;17.30;12.47;;;14.00;99.90;;;;;;4879537;29;20187;-75
2021/10/08 17:12:55;;;;;;;16.63;12.03;;;13.80;99.90;;;;;;4879442;29;20420;-75
2021/10/08 17:15:21;;;;;;;18.70;12.70;;;13.80;99.90;;;;;;4879302;29;20184;-75
2021/10/08 17:17:46;;;;;;;16.40;12.93;;;13.70;99.90;;;;;;4879408;29;20187;-75
2021/10/08 17:20:12;;;;;;;17.20;12.83;;;13.60;99.90;;;;;;4879566;29;20190;-75
2021/10/08 17:22:41;;;;;;;17.13;12.67;;;13.40;99.90;;;;;;4878434;29;20218;-76